Time;durP1;ratioP1;P1;durP2;ratioP2;P2;SDS_P1;SDS_P2;PMS_P1;PMS_P2;Temp;Humidity;BMP_temperature;BMP_pressure;BME280_temperature;BME280_humidity;BME280_pressure;Samples;Min_cycle;Max_cycle;Signal;HPM_P1;HPM_P2
2021/05/09 00:01:58;;;;;;;27.10;24.77;;;;;;;7.33;67.60;98735.28;5084311;28;20082;-63
2021/05/09 00:04:23;;;;;;;25.17;22.97;;;;;;;7.30;68.15;98734.41;5083847;28;20029;-63
2021/05/09 00:06:49;;;;;;;32.53;29.67;;;;;;;7.26;67.73;98728.47;5082243;28;20053;-62
2021/05/09 00:09:15;;;;;;;25.23;23.07;;;;;;;7.22;68.00;98731.91;5085793;28;20281;-62
2021/05/09 00:11:41;;;;;;;36.57;33.93;;;;;;;7.17;68.23;98735.34;5080192;28;20090;-62
2021/05/09 00:14:06;;;;;;;42.00;38.70;;;;;;;7.10;68.40;98731.09;5081607;28;20455;-62
2021/05/09 00:16:32;;;;;;;39.20;36.33;;;;;;;7.02;68.74;98738.78;5081245;28;20373;-62
2021/05/09 00:18:58;;;;;;;45.67;42.07;;;;;;;7.00;68.76;98732.00;5083313;28;20035;-62
2021/05/09 00:21:24;;;;;;;54.50;50.90;;;;;;;6.98;69.05;98737.09;5088988;28;20107;-62
2021/05/09 00:23:49;;;;;;;53.27;49.57;;;;;;;6.90;68.97;98741.38;5081400;28;20283;-62
2021/05/09 00:26:15;;;;;;;55.03;51.57;;;;;;;6.87;68.93;98726.09;5086927;28;20476;-62
2021/05/09 00:28:40;;;;;;;68.20;63.30;;;;;;;6.95;68.90;98742.22;5083283;28;20073;-63
2021/05/09 00:31:06;;;;;;;81.43;75.73;;;;;;;6.89;68.89;98740.53;5081684;28;20247;-62
2021/05/09 00:33:31;;;;;;;74.00;68.70;;;;;;;6.90;69.34;98741.38;5084352;28;20056;-62
2021/05/09 00:35:57;;;;;;;85.77;80.03;;;;;;;6.91;68.80;98735.44;5084139;28;20028;-62
2021/05/09 00:38:22;;;;;;;90.23;83.97;;;;;;;6.90;68.75;98728.63;5083199;28;20056;-63
2021/05/09 00:40:47;;;;;;;94.13;87.17;;;;;;;6.92;68.78;98736.28;5083655;28;20102;-62
2021/05/09 00:43:14;;;;;;;111.43;103.60;;;;;;;6.90;68.99;98736.28;5081082;28;20036;-62
2021/05/09 00:45:41;;;;;;;108.90;101.13;;;;;;;6.86;69.25;98737.13;5083500;28;20104;-62
2021/05/09 00:48:10;;;;;;;102.53;95.17;;;;;;;6.85;68.82;98737.97;5081665;28;20040;-62
2021/05/09 00:50:36;;;;;;;106.70;99.00;;;;;;;6.73;69.39;98730.38;5080122;28;20071;-63
2021/05/09 00:53:04;;;;;;;107.77;100.13;;;;;;;6.72;69.19;98733.75;5080556;28;20074;-62
2021/05/09 00:55:32;;;;;;;119.57;110.97;;;;;;;6.72;69.03;98738.84;5084390;28;20040;-62
2021/05/09 00:57:59;;;;;;;115.67;107.13;;;;;;;6.66;69.45;98729.53;5080010;28;20036;-62
2021/05/09 01:00:25;;;;;;;108.03;99.93;;;;;;;6.64;69.85;98726.16;5082422;28;20043;-62
2021/05/09 01:02:50;;;;;;;120.37;110.80;;;;;;;6.57;69.69;98728.72;5079601;28;20036;-62
2021/05/09 01:05:16;;;;;;;121.27;111.63;;;;;;;6.52;70.22;98726.16;5081834;28;20394;-62
2021/05/09 01:07:41;;;;;;;115.57;106.60;;;;;;;6.42;70.94;98727.03;5081317;28;20062;-62
2021/05/09 01:10:09;;;;;;;126.43;116.33;;;;;;;6.37;70.92;98721.06;5081116;28;20048;-62
2021/05/09 01:12:35;;;;;;;124.50;113.77;;;;;;;6.29;71.80;98726.19;5078325;28;20376;-62
2021/05/09 01:15:02;;;;;;;118.53;108.90;;;;;;;6.31;71.08;98727.03;5081418;28;20131;-62
2021/05/09 01:17:28;;;;;;;148.67;135.93;;;;;;;6.26;71.65;98732.97;5078621;28;20028;-62
2021/05/09 01:19:53;;;;;;;153.37;140.00;;;;;;;6.28;71.37;98729.56;5079760;28;20051;-62
2021/05/09 01:22:18;;;;;;;62.37;38.67;;;;;;;6.32;71.25;98725.34;5080738;28;20484;-62
2021/05/09 01:24:44;;;;;;;8.17;4.33;;;;;;;6.31;71.21;98721.09;5082346;28;20343;-63
2021/05/09 01:27:09;;;;;;;12.17;5.07;;;;;;;6.24;71.14;98725.31;5090327;28;20281;-62
2021/05/09 01:29:35;;;;;;;9.23;3.90;;;;;;;6.23;71.65;98722.81;5085904;28;20293;-62
2021/05/09 01:32:03;;;;;;;14.63;4.67;;;;;;;6.24;71.57;98724.47;5080154;28;20382;-62
2021/05/09 01:34:36;;;;;;;8.07;3.60;;;;;;;6.16;71.57;98728.72;5087251;28;20036;-62
2021/05/09 01:37:03;;;;;;;8.37;4.43;;;;;;;6.15;71.94;98732.13;5089041;28;20032;-62
2021/05/09 01:39:29;;;;;;;13.47;4.80;;;;;;;6.11;72.26;98722.81;5087903;28;20028;-62
2021/05/09 01:41:56;;;;;;;11.30;4.87;;;;;;;6.18;72.29;98725.34;5081950;28;20333;-62
2021/05/09 01:44:21;;;;;;;10.03;4.30;;;;;;;6.13;72.28;98729.59;5082808;28;20032;-62
2021/05/09 01:46:47;;;;;;;9.97;4.77;;;;;;;6.08;72.23;98725.31;5086692;28;20365;-62
2021/05/09 01:49:12;;;;;;;9.70;4.50;;;;;;;6.06;71.98;98722.81;5084766;28;20028;-62
2021/05/09 01:51:37;;;;;;;12.37;4.93;;;;;;;5.97;72.26;98721.09;5084466;28;20118;-62
2021/05/09 01:54:03;;;;;;;7.57;3.97;;;;;;;6.00;72.32;98727.88;5087543;28;20035;-62
2021/05/09 01:56:29;;;;;;;13.10;4.93;;;;;;;6.01;72.26;98726.19;5084143;28;20036;-62
2021/05/09 01:58:54;;;;;;;8.87;4.13;;;;;;;5.95;72.25;98729.56;5084746;28;20445;-62
2021/05/09 02:01:19;;;;;;;14.17;4.87;;;;;;;5.95;72.25;98732.09;5083050;28;20036;-62
2021/05/09 02:03:45;;;;;;;19.77;7.30;;;;;;;5.96;72.76;98729.56;5084237;28;20328;-62
2021/05/09 02:06:10;;;;;;;12.83;5.27;;;;;;;5.89;72.86;98732.13;5085615;28;20174;-62
2021/05/09 02:08:35;;;;;;;14.60;5.57;;;;;;;5.90;72.61;98734.63;5081868;28;20302;-62
2021/05/09 02:11:01;;;;;;;6.73;3.33;;;;;;;5.85;73.24;98733.78;5085599;28;20286;-62
2021/05/09 02:13:26;;;;;;;13.40;5.63;;;;;;;5.85;72.90;98736.31;5083629;28;20031;-62
2021/05/09 02:15:52;;;;;;;7.37;4.03;;;;;;;5.79;72.79;98732.91;5083407;28;20044;-62
2021/05/09 02:18:17;;;;;;;14.07;4.77;;;;;;;5.78;73.11;98733.75;5093201;28;20326;-62
2021/05/09 02:20:42;;;;;;;9.10;4.73;;;;;;;5.73;73.18;98738.81;5083838;28;20036;-62
2021/05/09 02:23:08;;;;;;;10.83;5.13;;;;;;;5.71;73.80;98739.69;5086966;28;20094;-62
2021/05/09 02:25:33;;;;;;;10.97;5.10;;;;;;;5.67;73.43;98738.84;5085663;28;20074;-62
2021/05/09 02:27:59;;;;;;;9.37;4.33;;;;;;;5.69;73.43;98742.22;5085809;28;20051;-62
2021/05/09 02:30:24;;;;;;;9.37;4.53;;;;;;;5.65;73.24;98737.97;5085556;28;20047;-62
2021/05/09 02:32:50;;;;;;;12.80;5.17;;;;;;;5.63;73.14;98738.81;5083976;28;20039;-62
2021/05/09 02:35:15;;;;;;;14.60;6.30;;;;;;;5.59;73.43;98744.75;5083745;28;20042;-62
2021/05/09 02:37:40;;;;;;;13.40;5.50;;;;;;;5.47;74.19;98738.75;5087716;28;20024;-62
2021/05/09 02:40:06;;;;;;;9.10;4.20;;;;;;;5.58;74.33;98748.13;5086033;28;20038;-62
2021/05/09 02:42:32;;;;;;;11.90;4.90;;;;;;;5.48;73.83;98745.53;5084569;28;20228;-62
2021/05/09 02:44:57;;;;;;;7.97;3.70;;;;;;;5.53;73.78;98751.50;5082406;28;20113;-62
2021/05/09 02:47:29;;;;;;;12.03;5.03;;;;;;;5.44;74.63;98748.94;5087759;28;20039;-62
2021/05/09 02:49:59;;;;;;;14.07;5.77;;;;;;;5.52;73.94;98742.16;5083067;28;20024;-62
2021/05/09 02:52:25;;;;;;;9.30;4.70;;;;;;;5.51;73.92;98749.81;5092050;28;20170;-62
2021/05/09 02:54:50;;;;;;;14.53;5.77;;;;;;;5.48;74.09;98731.97;5085371;28;20114;-62
2021/05/09 02:57:16;;;;;;;10.17;4.63;;;;;;;5.52;74.18;98754.88;5079172;28;20036;-62
2021/05/09 02:59:42;;;;;;;14.10;5.40;;;;;;;5.52;73.92;98751.47;5085432;28;20165;-62
2021/05/09 03:02:07;;;;;;;18.77;6.30;;;;;;;5.48;74.46;98745.53;5082410;28;20425;-62
2021/05/09 03:04:33;;;;;;;8.10;3.73;;;;;;;5.52;73.50;98752.34;5082917;28;20029;-62
2021/05/09 03:06:59;;;;;;;10.07;4.27;;;;;;;5.51;74.17;98748.13;5086154;28;20333;-62
2021/05/09 03:09:24;;;;;;;15.30;6.30;;;;;;;5.50;73.90;98753.19;5084282;28;20032;-62
2021/05/09 03:11:50;;;;;;;11.40;4.40;;;;;;;5.47;73.77;98754.00;5087146;28;20131;-62
2021/05/09 03:14:15;;;;;;;9.67;4.40;;;;;;;5.47;74.13;98751.47;5086980;28;20036;-62
2021/05/09 03:16:41;;;;;;;13.30;4.43;;;;;;;5.43;74.09;98754.03;5084623;28;20040;-62
2021/05/09 03:19:06;;;;;;;11.17;4.83;;;;;;;5.40;74.16;98752.31;5082352;28;20038;-62
2021/05/09 03:21:31;;;;;;;7.07;3.67;;;;;;;5.43;74.23;98749.75;5082764;28;20043;-62
2021/05/09 03:23:57;;;;;;;7.37;3.80;;;;;;;5.41;74.36;98753.16;5084011;28;20047;-62
2021/05/09 03:26:22;;;;;;;8.77;3.90;;;;;;;5.30;74.29;98742.13;5079831;28;20032;-62
2021/05/09 03:28:47;;;;;;;10.23;4.40;;;;;;;5.35;74.97;98759.06;5081708;28;20039;-62
2021/05/09 03:31:13;;;;;;;7.57;3.63;;;;;;;5.33;74.51;98760.75;5081116;28;20039;-62
2021/05/09 03:33:38;;;;;;;16.07;6.03;;;;;;;5.35;74.71;98759.06;5079589;28;20140;-62
2021/05/09 03:36:05;;;;;;;8.10;4.03;;;;;;;5.32;74.43;98765.84;5084151;28;20051;-62
2021/05/09 03:38:30;;;;;;;14.90;4.80;;;;;;;5.36;74.38;98765.84;5081640;28;20146;-62
2021/05/09 03:40:56;;;;;;;8.70;4.03;;;;;;;5.39;74.34;98770.94;5092286;28;20024;-62
2021/05/09 03:43:21;;;;;;;13.30;5.27;;;;;;;5.39;74.31;98770.09;5083567;28;20303;-62
2021/05/09 03:45:47;;;;;;;17.90;6.77;;;;;;;5.39;74.08;98770.94;5084493;28;20462;-62
2021/05/09 03:48:12;;;;;;;10.00;4.70;;;;;;;5.45;74.26;98776.06;5093245;28;20403;-63
2021/05/09 03:50:37;;;;;;;13.07;5.30;;;;;;;5.55;73.82;98774.41;5081908;28;20052;-62
2021/05/09 03:53:03;;;;;;;9.80;4.20;;;;;;;5.63;73.50;98770.19;5086512;28;20383;-62
2021/05/09 03:55:28;;;;;;;12.57;4.77;;;;;;;5.80;73.08;98777.84;5083249;28;20044;-62
2021/05/09 03:57:54;;;;;;;8.33;3.73;;;;;;;5.92;73.04;98783.00;5083116;28;20042;-62
2021/05/09 04:00:19;;;;;;;11.13;4.33;;;;;;;6.07;71.95;98775.38;5082871;28;20024;-62
2021/05/09 04:02:45;;;;;;;8.83;4.60;;;;;;;6.21;71.57;98780.47;5082948;28;20036;-63
2021/05/09 04:05:11;;;;;;;9.30;4.13;;;;;;;6.37;71.41;98782.19;5083035;28;20027;-62
2021/05/09 04:07:37;;;;;;;8.03;3.83;;;;;;;6.66;70.44;98783.00;5081430;28;20481;-63
2021/05/09 04:10:04;;;;;;;7.23;3.43;;;;;;;6.83;69.77;98783.84;5080805;28;20036;-63
2021/05/09 04:12:29;;;;;;;11.93;4.87;;;;;;;7.00;68.59;98783.81;5082184;28;20032;-62
2021/05/09 04:14:55;;;;;;;11.27;4.80;;;;;;;7.22;68.12;98777.81;5079699;28;20039;-62
2021/05/09 04:17:20;;;;;;;8.43;3.80;;;;;;;7.41;66.73;98785.38;5080624;28;20047;-62
2021/05/09 04:19:45;;;;;;;8.70;4.03;;;;;;;7.59;66.57;98783.63;5084089;28;20093;-63
2021/05/09 04:22:11;;;;;;;21.70;6.97;;;;;;;7.71;65.64;98782.72;5081136;28;20028;-62
2021/05/09 04:24:36;;;;;;;10.57;3.97;;;;;;;7.89;65.80;98781.75;5086526;28;20047;-63
2021/05/09 04:27:02;;;;;;;11.60;5.13;;;;;;;8.03;64.56;98785.06;5083875;28;20463;-63
2021/05/09 04:29:28;;;;;;;7.67;3.53;;;;;;;8.10;64.76;98784.19;5083658;28;20036;-63
2021/05/09 04:31:53;;;;;;;11.10;4.57;;;;;;;8.21;64.96;98785.78;5082857;28;20060;-62
2021/05/09 04:34:19;;;;;;;9.03;4.00;;;;;;;8.33;63.94;98790.00;5090756;28;20027;-63
2021/05/09 04:36:44;;;;;;;11.60;5.10;;;;;;;8.43;63.68;98791.63;5081965;28;20025;-62
2021/05/09 04:39:09;;;;;;;16.53;6.17;;;;;;;8.45;64.23;98784.78;5074506;28;20032;-63
2021/05/09 04:41:35;;;;;;;15.23;5.93;;;;;;;8.48;64.26;98786.47;5092675;28;20034;-62
2021/05/09 04:44:00;;;;;;;11.67;5.00;;;;;;;8.43;64.94;98786.50;5080067;28;20032;-62
2021/05/09 04:46:26;;;;;;;6.60;3.63;;;;;;;8.47;64.99;98795.00;5082818;28;20305;-62
2021/05/09 04:48:51;;;;;;;10.47;4.63;;;;;;;8.52;64.74;98795.81;5082951;28;20089;-62
2021/05/09 04:51:17;;;;;;;10.03;4.67;;;;;;;8.58;64.68;98788.06;5082407;28;20050;-62
2021/05/09 04:53:42;;;;;;;10.23;4.20;;;;;;;8.63;64.46;98788.88;5081918;28;20068;-63
2021/05/09 04:56:08;;;;;;;7.40;3.80;;;;;;;8.68;64.72;98794.81;5083131;28;20123;-62
2021/05/09 04:58:39;;;;;;;10.50;4.50;;;;;;;8.86;64.34;98791.25;5090722;28;20051;-62
2021/05/09 05:01:07;;;;;;;7.10;4.00;;;;;;;8.89;64.45;98792.06;5082507;28;20063;-62
2021/05/09 05:03:33;;;;;;;10.83;4.60;;;;;;;9.01;64.28;98796.19;5084437;28;20415;-62
2021/05/09 05:05:59;;;;;;;7.40;3.90;;;;;;;9.03;64.02;98797.03;5078970;28;20028;-62
2021/05/09 05:08:24;;;;;;;13.07;5.53;;;;;;;9.20;62.88;98796.88;5080208;28;20060;-62
2021/05/09 05:10:50;;;;;;;8.60;4.63;;;;;;;9.27;63.09;98798.47;5083119;28;20038;-62
2021/05/09 05:13:42;;;;;;;10.93;4.93;;;;;;;9.33;61.97;98793.31;5081016;28;20024;-66
2021/05/09 05:16:07;;;;;;;5.27;3.07;;;;;;;9.18;62.15;98797.72;5079306;28;20048;-63
2021/05/09 05:18:35;;;;;;;13.67;5.57;;;;;;;9.35;61.94;98802.66;5078939;28;20367;-63
2021/05/09 05:21:02;;;;;;;9.30;4.40;;;;;;;9.43;62.23;98800.84;5081657;28;20024;-62
2021/05/09 05:23:29;;;;;;;15.63;5.83;;;;;;;9.57;62.16;98800.69;5082560;28;20024;-62
2021/05/09 05:25:55;;;;;;;16.27;6.30;;;;;;;9.70;62.51;98804.78;5091490;28;20020;-63
2021/05/09 05:28:21;;;;;;;10.37;4.90;;;;;;;9.90;61.93;98807.94;5080756;28;20046;-64
2021/05/09 05:30:47;;;;;;;12.17;5.27;;;;;;;10.21;61.54;98800.69;5080256;28;20066;-63
2021/05/09 05:33:32;;;;;;;8.13;4.03;;;;;;;10.39;61.04;98807.25;5080100;28;20036;-63
2021/05/09 05:35:58;;;;;;;;;;;;;;;10.44;59.83;98805.44;5081011;28;20056;-62
2021/05/09 05:38:24;;;;;;;10.37;4.87;;;;;;;10.70;60.10;98807.59;5084509;28;19959;-63
2021/05/09 05:40:55;;;;;;;10.50;4.73;;;;;;;10.86;59.84;98812.44;5081707;28;20040;-63
2021/05/09 05:43:26;;;;;;;7.40;4.43;;;;;;;11.02;59.57;98810.47;5082688;28;20032;-62
2021/05/09 05:45:52;;;;;;;9.33;4.47;;;;;;;11.17;59.29;98811.91;5082006;28;20043;-63
2021/05/09 05:48:19;;;;;;;6.37;3.77;;;;;;;11.31;58.91;98813.34;5082962;28;20059;-62
2021/05/09 05:50:44;;;;;;;12.47;5.53;;;;;;;11.49;58.42;98819.84;5083064;28;20031;-63
2021/05/09 05:53:10;;;;;;;11.30;4.97;;;;;;;11.65;58.16;98817.81;5090070;28;20036;-63
2021/05/09 05:55:35;;;;;;;11.53;4.93;;;;;;;11.76;57.43;98815.88;5080626;28;20033;-63
2021/05/09 05:58:01;;;;;;;9.10;3.90;;;;;;;11.81;57.49;98825.19;5082548;28;20036;-63
2021/05/09 06:00:26;;;;;;;8.67;4.37;;;;;;;11.89;56.54;98825.03;5082851;28;20040;-63
2021/05/09 06:02:52;;;;;;;8.47;4.27;;;;;;;12.03;57.01;98827.31;5085479;28;20074;-63
2021/05/09 06:05:17;;;;;;;11.80;5.37;;;;;;;12.12;56.55;98827.97;5091661;28;20024;-63
2021/05/09 06:07:43;;;;;;;11.20;4.80;;;;;;;12.26;56.57;98822.53;5090746;28;20102;-63
2021/05/09 06:10:10;;;;;;;7.23;4.33;;;;;;;12.34;56.61;98820.63;5089600;28;20108;-63
2021/05/09 06:12:35;;;;;;;6.60;4.30;;;;;;;12.40;56.61;98817.91;5081904;28;20028;-63
2021/05/09 06:15:01;;;;;;;10.50;4.90;;;;;;;12.49;56.64;98816.84;5083182;28;20043;-64
2021/05/09 06:17:26;;;;;;;12.15;5.30;;;;;;;12.49;56.53;98804.81;5081368;28;20322;-63
2021/05/09 06:19:52;;;;;;;16.48;7.90;;;;;;;12.68;57.50;98815.53;5082950;28;20029;-63
2021/05/09 06:22:17;;;;;;;10.70;5.47;;;;;;;12.85;55.97;98815.09;5086933;28;20025;-63
2021/05/09 06:24:43;;;;;;;11.85;5.72;;;;;;;13.01;55.61;98813.81;5086716;28;20042;-63
2021/05/09 06:27:08;;;;;;;12.18;5.68;;;;;;;13.09;55.19;98817.91;5086836;28;20028;-63
2021/05/09 06:29:33;;;;;;;9.02;4.90;;;;;;;13.18;55.73;98811.69;5085070;28;20390;-63
2021/05/09 06:31:59;;;;;;;9.70;5.13;;;;;;;13.27;54.63;98808.88;5082471;28;20114;-64
2021/05/09 06:34:24;;;;;;;7.65;4.15;;;;;;;13.22;53.81;98809.00;5087956;28;20024;-63
2021/05/09 06:36:49;;;;;;;9.45;4.90;;;;;;;13.29;54.12;98819.97;5087745;28;20029;-63
2021/05/09 06:39:19;;;;;;;7.53;4.07;;;;;;;13.43;53.79;98814.44;5087105;28;20357;-63
2021/05/09 06:41:44;;;;;;;6.45;4.15;;;;;;;13.50;54.23;98813.38;5085281;28;20043;-63
2021/05/09 06:44:11;;;;;;;8.10;4.90;;;;;;;13.68;54.09;98815.44;5085787;28;20285;-63
2021/05/09 06:46:36;;;;;;;8.27;3.92;;;;;;;13.71;53.68;98823.06;5085598;28;20338;-63
2021/05/09 06:49:02;;;;;;;9.60;5.63;;;;;;;13.51;54.71;98820.22;5083812;28;20103;-63
2021/05/09 06:51:28;;;;;;;7.88;4.40;;;;;;;13.54;55.51;98820.97;5086483;28;20028;-64
2021/05/09 06:53:55;;;;;;;8.77;4.82;;;;;;;13.72;54.12;98823.03;5086336;28;20400;-63
2021/05/09 06:56:20;;;;;;;10.98;5.03;;;;;;;13.86;53.87;98826.97;5085169;28;20304;-64
2021/05/09 06:58:46;;;;;;;10.63;5.72;;;;;;;14.06;52.20;98830.63;5083591;28;20028;-64
2021/05/09 07:01:13;;;;;;;10.10;4.97;;;;;;;13.93;54.19;98826.72;5088983;28;20021;-63
2021/05/09 07:03:39;;;;;;;8.85;4.35;;;;;;;14.12;53.12;98830.47;5106676;28;20046;-63
2021/05/09 07:06:04;;;;;;;10.20;5.47;;;;;;;14.27;53.94;98823.13;5090271;28;20031;-63
2021/05/09 07:08:30;;;;;;;9.43;5.15;;;;;;;14.51;51.92;98822.44;5086719;28;20040;-63
2021/05/09 07:10:56;;;;;;;8.85;5.13;;;;;;;14.63;51.62;98816.88;5088155;28;20091;-63
2021/05/09 07:13:21;;;;;;;9.57;5.25;;;;;;;14.63;51.86;98811.72;5087706;28;20072;-63
2021/05/09 07:15:48;;;;;;;7.65;4.40;;;;;;;14.67;51.40;98815.03;5072861;28;20024;-61
2021/05/09 07:18:16;;;;;;;10.57;5.38;;;;;;;14.68;53.24;98821.88;5089427;28;20020;-63
2021/05/09 07:20:44;;;;;;;9.30;5.15;;;;;;;14.85;51.45;98814.44;5085285;28;20067;-66
2021/05/09 07:23:13;;;;;;;7.30;4.53;;;;;;;14.99;51.78;98818.22;5088998;28;20052;-63
2021/05/09 07:25:40;;;;;;;6.82;4.60;;;;;;;15.08;49.65;98809.31;5085643;28;20035;-63
2021/05/09 07:28:11;;;;;;;7.10;4.75;;;;;;;15.00;50.29;98814.75;5085461;28;20028;-65
2021/05/09 07:30:38;;;;;;;7.45;4.68;;;;;;;15.25;50.31;98814.75;5084954;28;20107;-65
2021/05/09 07:33:05;;;;;;;10.45;5.45;;;;;;;15.30;50.93;98817.19;5085551;28;20039;-64
2021/05/09 07:35:30;;;;;;;6.00;4.68;;;;;;;15.40;49.95;98809.03;5086105;28;20031;-63
2021/05/09 07:37:56;;;;;;;5.28;3.95;;;;;;;15.52;50.16;98808.66;5088247;28;20575;-63
2021/05/09 07:40:22;;;;;;;18.27;7.93;;;;;;;15.78;49.08;98806.84;5085281;28;20335;-64
2021/05/09 07:42:48;;;;;;;9.18;5.85;;;;;;;15.89;49.35;98809.88;5085647;28;20028;-65
2021/05/09 07:45:17;;;;;;;9.80;5.85;;;;;;;15.86;48.25;98815.16;5084019;28;20370;-65
2021/05/09 07:47:43;;;;;;;8.52;4.55;;;;;;;15.91;47.97;98808.09;5080716;28;20024;-65
2021/05/09 07:50:09;;;;;;;9.68;5.20;;;;;;;15.92;48.40;98808.00;5084040;28;20139;-65
2021/05/09 07:52:35;;;;;;;9.60;5.80;;;;;;;16.02;49.18;98816.28;5087202;28;20448;-65
2021/05/09 07:55:01;;;;;;;10.90;5.22;;;;;;;16.15;49.50;98806.31;5084473;28;20384;-65
2021/05/09 07:57:27;;;;;;;9.70;5.07;;;;;;;15.99;48.84;98808.63;5081108;28;20284;-65
2021/05/09 07:59:52;;;;;;;10.80;5.45;;;;;;;16.06;49.00;98802.31;5087682;28;20039;-65
2021/05/09 08:02:20;;;;;;;9.85;5.45;;;;;;;16.22;48.11;98803.41;5081694;28;20062;-65
2021/05/09 08:04:45;;;;;;;11.80;6.18;;;;;;;16.17;48.67;98799.31;5080426;28;20373;-64
2021/05/09 08:07:11;;;;;;;9.07;5.10;;;;;;;16.21;48.82;98804.31;5081493;28;20044;-64
2021/05/09 08:09:36;;;;;;;7.57;5.03;;;;;;;16.43;48.74;98799.97;5080603;28;20021;-65
2021/05/09 08:12:02;;;;;;;5.80;4.13;;;;;;;16.67;47.76;98794.75;5080243;28;20028;-65
2021/05/09 08:14:27;;;;;;;7.25;4.70;;;;;;;16.69;47.70;98798.13;5079875;28;20391;-65
2021/05/09 08:16:53;;;;;;;12.00;5.00;;;;;;;16.83;47.14;98798.41;5078175;28;20040;-65
2021/05/09 08:19:18;;;;;;;7.10;4.13;;;;;;;16.86;47.53;98795.69;5081178;28;20032;-65
2021/05/09 08:21:44;;;;;;;14.27;6.18;;;;;;;16.96;46.98;98794.41;5082446;28;20277;-65
2021/05/09 08:24:10;;;;;;;6.13;4.63;;;;;;;16.93;47.12;98793.69;5078535;28;20055;-65
2021/05/09 08:26:35;;;;;;;11.38;5.65;;;;;;;17.00;46.60;98790.78;5088230;28;20052;-65
2021/05/09 08:29:02;;;;;;;13.63;6.43;;;;;;;17.06;46.75;98787.91;5079713;28;20058;-65
2021/05/09 08:31:27;;;;;;;7.82;4.30;;;;;;;17.28;46.72;98787.81;5079420;28;20035;-65
2021/05/09 08:33:53;;;;;;;11.90;6.18;;;;;;;17.25;46.76;98790.56;5081092;28;20043;-65
2021/05/09 08:36:18;;;;;;;9.82;4.78;;;;;;;17.47;46.02;98786.13;5081416;28;20062;-65
2021/05/09 08:38:44;;;;;;;6.80;4.40;;;;;;;17.60;46.29;98784.69;5079981;28;20114;-65
2021/05/09 08:41:09;;;;;;;7.05;4.15;;;;;;;17.88;46.10;98780.84;5081477;28;20365;-64
2021/05/09 08:43:36;;;;;;;6.65;3.65;;;;;;;18.06;45.79;98777.41;5080306;28;20082;-65
2021/05/09 08:46:01;;;;;;;9.00;5.13;;;;;;;18.26;45.73;98775.53;5080026;28;20029;-63
2021/05/09 08:48:30;;;;;;;11.48;5.93;;;;;;;18.47;44.92;98771.06;5081408;28;20016;-65
2021/05/09 08:50:56;;;;;;;9.10;4.55;;;;;;;18.48;44.63;98764.13;5081112;28;20085;-64
2021/05/09 08:53:22;;;;;;;11.85;5.60;;;;;;;18.53;44.03;98765.63;5081264;28;20334;-63
2021/05/09 08:55:48;;;;;;;10.93;5.03;;;;;;;18.61;44.22;98763.50;5088594;28;20067;-63
2021/05/09 08:58:14;;;;;;;16.02;6.25;;;;;;;18.76;44.05;98759.28;5085880;28;20012;-63
2021/05/09 09:00:40;;;;;;;11.07;5.63;;;;;;;19.11;44.48;98766.13;5086591;28;20433;-66
2021/05/09 09:03:06;;;;;;;10.70;5.70;;;;;;;19.36;43.52;98755.28;5084616;28;20035;-63
2021/05/09 09:05:42;;;;;;;10.38;5.25;;;;;;;19.69;42.20;98757.06;5082693;28;20043;-64
2021/05/09 09:08:09;;;;;;;9.05;4.80;;;;;;;19.64;41.78;98756.47;5083336;28;20274;-64
2021/05/09 09:10:37;;;;;;;11.05;4.70;;;;;;;19.74;41.67;98749.84;5085425;28;20392;-65
2021/05/09 09:13:18;;;;;;;8.65;4.85;;;;;;;19.73;42.19;98742.97;5082668;28;20467;-65
2021/05/09 09:15:57;;;;;;;9.88;4.57;;;;;;;19.90;41.65;98743.72;5080052;28;20032;-63
2021/05/09 09:18:37;;;;;;;7.45;4.57;;;;;;;20.14;40.70;98748.50;5085244;28;20413;-63
2021/05/09 09:21:24;;;;;;;8.43;4.45;;;;;;;20.20;40.96;98743.78;5081678;28;20028;-64
2021/05/09 09:24:04;;;;;;;11.27;5.72;;;;;;;20.33;40.32;98741.34;5081885;28;20028;-64
2021/05/09 09:26:52;;;;;;;7.07;4.15;;;;;;;20.48;40.88;98737.91;5083042;28;20044;-64
2021/05/09 09:29:22;;;;;;;6.00;4.00;;;;;;;20.72;40.51;98733.84;5084904;28;20024;-64
2021/05/09 09:31:59;;;;;;;8.52;4.18;;;;;;;20.83;39.90;98728.03;5086514;28;20140;-63
2021/05/09 09:34:42;;;;;;;8.18;4.25;;;;;;;21.12;39.59;98731.50;5084802;28;20062;-64
2021/05/09 09:37:10;;;;;;;7.85;4.65;;;;;;;21.04;38.78;98726.75;5082674;28;20023;-64
2021/05/09 09:39:58;;;;;;;7.43;4.32;;;;;;;21.22;39.41;98732.66;5086251;28;20448;-64
2021/05/09 09:42:40;;;;;;;7.45;4.75;;;;;;;21.27;39.52;98728.84;5081845;28;20082;-66
2021/05/09 09:45:27;;;;;;;9.25;5.15;;;;;;;21.26;39.28;98721.94;5082077;28;20178;-65
2021/05/09 09:48:00;;;;;;;6.55;4.90;;;;;;;21.46;39.74;98723.34;5084184;28;20377;-66
2021/05/09 09:50:39;;;;;;;4.65;3.63;;;;;;;21.56;38.35;98714.00;5085223;28;20024;-66
2021/05/09 09:53:29;;;;;;;5.22;3.67;;;;;;;21.47;38.55;98721.56;5080660;28;20060;-66
2021/05/09 09:56:09;;;;;;;7.65;4.38;;;;;;;21.48;38.49;98718.00;5083323;28;20043;-67
2021/05/09 09:59:02;;;;;;;7.57;4.30;;;;;;;21.70;38.11;98716.59;5105774;28;20444;-68
2021/05/09 10:01:32;;;;;;;5.80;3.70;;;;;;;22.00;38.04;98703.41;5087257;28;20028;-67
2021/05/09 10:04:03;;;;;;;7.03;4.28;;;;;;;22.16;37.29;98703.25;5086378;28;20119;-67
2021/05/09 10:06:29;;;;;;;4.13;3.72;;;;;;;22.11;37.56;98694.88;5083711;28;20032;-68
2021/05/09 10:08:57;;;;;;;8.80;5.22;;;;;;;22.12;37.15;98699.16;5087337;28;20123;-69
2021/05/09 10:11:24;;;;;;;3.45;3.00;;;;;;;22.35;36.37;98692.44;5088446;28;20025;-68
2021/05/09 10:13:50;;;;;;;3.80;3.38;;;;;;;22.47;35.94;98695.09;5087686;28;20324;-67
2021/05/09 10:16:20;;;;;;;6.07;4.65;;;;;;;22.56;35.73;98694.47;5085728;28;20023;-68
2021/05/09 10:18:53;;;;;;;4.20;3.72;;;;;;;22.67;35.27;98686.75;5082933;28;20047;-64
2021/05/09 10:21:26;;;;;;;8.43;5.22;;;;;;;22.63;35.21;98677.44;5083383;28;20032;-64
2021/05/09 10:24:14;;;;;;;6.57;3.20;;;;;;;22.73;34.99;98681.16;5084850;28;20028;-65
2021/05/09 10:27:02;;;;;;;4.88;3.35;;;;;;;23.09;34.90;98677.78;5086437;28;20074;-66
2021/05/09 10:29:49;;;;;;;4.70;3.33;;;;;;;23.11;34.29;98685.53;5085875;28;20215;-67
2021/05/09 10:32:21;;;;;;;3.50;3.20;;;;;;;23.24;34.21;98670.66;5086130;28;20033;-67
2021/05/09 10:34:56;;;;;;;4.60;3.63;;;;;;;23.43;34.18;98667.56;5085604;28;20115;-63
2021/05/09 10:37:40;;;;;;;;;;;;;;;23.51;34.34;98680.97;5082878;28;20032;-62
2021/05/09 10:40:22;;;;;;;5.75;3.63;;;;;;;23.32;33.54;98654.41;5084823;28;19924;-62
2021/05/09 10:43:09;;;;;;;5.72;4.15;;;;;;;23.63;34.23;98664.44;5081994;28;20031;-62
2021/05/09 10:45:34;;;;;;;6.80;5.45;;;;;;;23.81;33.70;98663.09;5083187;28;20048;-63
2021/05/09 10:50:48;;;;;;;6.60;4.72;;;;;;;24.05;34.26;98661.31;5082618;28;20308;-62
2021/05/09 10:53:32;;;;;;;3.60;2.80;;;;;;;24.08;32.68;98652.38;5085092;28;20115;-67
2021/05/09 10:55:59;;;;;;;4.78;3.30;;;;;;;24.18;34.96;98656.06;5084173;28;20027;-65
2021/05/09 10:58:39;;;;;;;5.78;3.33;;;;;;;24.27;33.73;98654.53;5085872;28;20293;-64
2021/05/09 11:01:08;;;;;;;2.88;2.67;;;;;;;24.45;32.92;98648.72;5084354;28;20020;-65
2021/05/09 11:03:36;;;;;;;4.30;2.90;;;;;;;24.38;32.19;98644.91;5085010;28;20047;-65
2021/05/09 11:06:08;;;;;;;4.93;2.70;;;;;;;24.34;32.29;98640.84;5081013;28;20378;-64
2021/05/09 11:08:58;;;;;;;4.60;3.40;;;;;;;24.27;32.00;98644.06;5085388;28;20090;-65
2021/05/09 11:11:30;;;;;;;5.60;2.90;;;;;;;24.39;32.19;98641.34;5079396;28;20483;-66
2021/05/09 11:16:25;;;;;;;4.70;3.00;;;;;;;24.40;32.39;98639.56;5083910;28;20043;-65
2021/05/09 11:19:03;;;;;;;3.33;2.88;;;;;;;24.40;32.06;98639.56;5088296;28;20028;-67
2021/05/09 11:21:31;;;;;;;4.20;2.90;;;;;;;24.44;32.29;98630.53;5084687;28;20115;-65
2021/05/09 11:24:01;;;;;;;4.63;3.00;;;;;;;24.45;32.06;98626.91;5082667;28;20043;-64
2021/05/09 11:26:29;;;;;;;3.63;2.53;;;;;;;24.48;31.84;98627.56;5084399;28;20042;-65
2021/05/09 11:29:17;;;;;;;3.95;2.95;;;;;;;24.66;32.90;98625.28;5084607;28;20106;-65
2021/05/09 11:31:46;;;;;;;6.68;4.22;;;;;;;24.65;31.80;98620.19;5082628;28;20058;-62
2021/05/09 11:34:12;;;;;;;8.07;4.15;;;;;;;24.64;31.58;98618.50;5087138;28;20032;-66
2021/05/09 11:36:39;;;;;;;7.97;3.42;;;;;;;24.64;31.52;98608.84;5099110;28;20085;-66
2021/05/09 11:39:09;;;;;;;5.93;3.60;;;;;;;24.66;30.93;98608.72;5082362;28;20055;-66
2021/05/09 11:41:57;;;;;;;7.20;4.00;;;;;;;24.71;31.26;98611.84;5087876;28;20039;-65